HP: University of Magic Arts

Объявление

Добро пожаловать в магический Лондон!
В игре: ноябрь - декабрь 2025 года

Рейтинг Ролевых Ресурсов - RPG TOP Рейтинг форумов Forum-top.ru

Информация о пользователе

Привет, Гость! Войдите или зарегистрируйтесь.


Вы здесь » HP: University of Magic Arts » Глава I. 1 сентября — 31 октября [2025]


Глава I. 1 сентября — 31 октября [2025]

Тем 1 страница 30 из 30

Тема Ответов Просмотров Последнее сообщение
1 Важно: Закрыта Шаблон эпизода  Magic
0 137 2017-12-05 13:15:05  Magic
5 145 2019-03-19 01:14:18  Albert Flint
3 I just want to be more than friend  Blaithyn O'Farrell
4 77 2019-03-18 10:39:56  Blaithyn O'Farrell
0 13 2019-03-17 22:43:13  Draco Malfoy
6 154 2019-03-17 00:23:20  Rosaline Travers
6 Flash of fame  Ada Montague
2 55 2019-03-16 22:39:44  Scorpius Malfoy
7 Where the hell is she?  Albert Flint
5 146 2019-03-16 11:52:30  Ada Montague
8 Правда не убьет  Neamhain Travers
6 139 2019-03-15 15:58:16  Neamhain Travers
10 165 2019-03-10 20:30:57  Ethan Travers
10 I'm gonna take you down.  Blaithyn O'Farrell
2 49 2019-03-08 22:26:59  Varvara Krum
8 153 2019-03-08 21:51:35  Scorpius Malfoy
12 Bravo, Bravo, Bravo  Blaise Zabini
29 625 2019-03-01 13:59:23  Blaise Zabini
13 Hard came the rain  Gerda Yngling
1 31 2019-02-24 13:05:43  Sebastian Higgs
5 117 2019-02-24 00:35:06  Christopher Burke
15 Кот-притворщик  Vivien Lafor
1 30 2019-02-22 12:47:21  Bastian Lafor
4 69 2019-02-20 11:44:56  Rolf Scamander
17 a several moments  Rose Granger-Weasley
18 231 2019-02-17 15:50:41  Scorpius Malfoy
4 206 2019-02-14 13:31:45  Hermione Granger
2 58 2019-02-12 16:57:48  Fred Weasley
6 131 2019-02-12 14:49:13  Scorpius Malfoy
24 405 2019-01-22 01:42:39  Blaise Zabini
22 The Dead end  Blaithyn O'Farrell
3 86 2019-01-17 20:48:39  Vivien Lafor
3 153 2019-01-17 14:32:02  Albert Flint
24 Aren't you scared?  Jake Filger
1 56 2019-01-11 21:06:13  Molly Weasley
2 100 2019-01-09 12:45:36  Hugo Granger-Weasley
8 424 2019-01-04 03:04:59  Ginny Potter
27 Those memories  Roxanne Weasley
4 185 2018-12-09 17:28:39  Fred Weasley
28 get out of my mushrooms  Alice Longbottom
0 48 2018-12-04 14:48:19  Alice Longbottom
29 Tempest in a teapot  Julian Ford
13 222 2018-10-26 21:09:03  Jemma Sztorn
0 50 2018-08-14 08:59:10  Theobald Travers

Вы здесь » HP: University of Magic Arts » Глава I. 1 сентября — 31 октября [2025]